Time;durP1;ratioP1;P1;durP2;ratioP2;P2;SDS_P1;SDS_P2;PMS_P1;PMS_P2;Temp;Humidity;BMP_temperature;BMP_pressure;BME280_temperature;BME280_humidity;BME280_pressure;Samples;Min_cycle;Max_cycle;Signal;HPM_P1;HPM_P2
2024/01/05 16:21:56;;;;;;;10.15;1.88;;;;;;;24.81;40.68;98935.16;5065719;28;20755;-64
2024/01/05 16:24:22;;;;;;;10.73;2.00;;;;;;;23.70;42.88;98949.53;5051283;28;20029;-64
2024/01/05 16:26:48;;;;;;;9.30;1.65;;;;;;;23.32;43.56;98952.16;5039974;28;20524;-63
2024/01/05 16:29:13;;;;;;;8.57;1.83;;;;;;;23.14;43.95;98955.53;5045864;28;20033;-64
2024/01/05 16:31:39;;;;;;;19.35;1.70;;;;;;;23.10;44.09;98957.34;5042636;28;20047;-63
2024/01/05 16:34:05;;;;;;;14.55;1.45;;;;;;;23.03;43.88;98949.97;5042957;28;20017;-63
2024/01/05 16:36:30;;;;;;;7.47;1.60;;;;;;;23.02;44.37;98945.78;5050872;28;20374;-65
2024/01/05 16:38:55;;;;;;;28.90;1.75;;;;;;;23.00;44.03;98950.66;5041634;28;20531;-65
2024/01/05 16:41:23;;;;;;;18.17;1.67;;;;;;;22.97;43.95;98953.25;5042487;28;20116;-63
2024/01/05 16:43:49;;;;;;;13.47;1.40;;;;;;;23.05;44.49;98949.63;5046872;28;20087;-65
2024/01/05 16:46:16;;;;;;;11.88;1.48;;;;;;;23.11;44.72;98964.97;5045569;28;20267;-64
2024/01/05 16:48:41;;;;;;;10.65;1.40;;;;;;;23.11;44.82;98959.66;5040528;28;20079;-64
2024/01/05 16:51:06;;;;;;;19.75;1.95;;;;;;;23.11;44.74;98964.97;5050085;28;20024;-66
2024/01/05 16:53:32;;;;;;;11.10;1.63;;;;;;;23.15;44.57;98968.47;5046474;28;20053;-64
2024/01/05 16:55:57;;;;;;;16.50;1.65;;;;;;;23.15;44.90;98973.81;5038041;28;20033;-65
2024/01/05 16:58:23;;;;;;;14.80;1.92;;;;;;;23.16;43.83;98974.56;5028403;28;20029;-66
2024/01/05 17:00:48;;;;;;;22.25;2.83;;;;;;;23.12;43.89;98974.47;5037486;28;20037;-63
2024/01/05 17:03:14;;;;;;;9.25;2.10;;;;;;;23.08;44.15;98972.84;5039043;28;20033;-66
2024/01/05 17:05:42;;;;;;;7.22;1.52;;;;;;;23.05;44.65;98973.56;5037533;28;20052;-65
2024/01/05 17:08:08;;;;;;;13.13;1.60;;;;;;;23.02;44.83;98975.03;5037974;28;20037;-65
2024/01/05 17:10:34;;;;;;;15.25;2.00;;;;;;;23.00;44.75;98985.22;5040219;28;20025;-65
2024/01/05 17:12:59;;;;;;;7.75;2.60;;;;;;;22.96;45.04;98981.72;5038346;28;20566;-64
2024/01/05 17:15:24;;;;;;;8.07;1.45;;;;;;;22.97;44.79;98990.47;5038263;28;20473;-64
2024/01/05 17:17:51;;;;;;;8.35;1.60;;;;;;;22.95;44.92;98985.50;5040229;28;20078;-64
2024/01/05 17:20:16;;;;;;;12.23;2.03;;;;;;;22.94;44.51;98978.63;5041515;28;20108;-63
2024/01/05 17:22:42;;;;;;;6.82;1.60;;;;;;;22.92;44.98;98980.84;5046184;28;20103;-64
2024/01/05 17:25:07;;;;;;;6.22;1.70;;;;;;;22.97;44.37;98990.47;5026734;28;20033;-62
2024/01/05 17:27:33;;;;;;;16.00;2.70;;;;;;;23.00;44.44;98976.50;5040321;28;20104;-65
2024/01/05 17:29:59;;;;;;;7.30;1.50;;;;;;;22.97;44.64;98983.25;5043564;28;20032;-64
2024/01/05 17:32:24;;;;;;;9.85;1.65;;;;;;;22.96;44.60;98986.28;5036130;28;20433;-64
2024/01/05 17:34:50;;;;;;;14.02;1.38;;;;;;;22.93;44.54;98979.75;5032991;28;20030;-64
2024/01/05 17:37:15;;;;;;;9.75;1.85;;;;;;;22.95;44.65;98980.16;5031441;28;20404;-64
2024/01/05 17:39:41;;;;;;;7.07;1.85;;;;;;;22.96;43.70;98991.59;5029234;28;20104;-63
2024/01/05 17:42:11;;;;;;;4.57;1.55;;;;;;;22.94;44.16;98981.28;5027123;28;20481;-62
2024/01/05 17:44:40;;;;;;;13.63;1.83;;;;;;;22.93;43.88;98992.28;5028648;28;20037;-64
2024/01/05 17:47:06;;;;;;;15.15;1.85;;;;;;;22.96;43.99;98988.94;5020807;28;20021;-61
2024/01/05 17:49:32;;;;;;;8.77;1.67;;;;;;;22.99;43.69;99002.28;5022651;28;20017;-62
2024/01/05 17:51:57;;;;;;;16.58;2.03;;;;;;;23.00;43.62;98993.19;5021110;28;20026;-64
2024/01/05 17:54:23;;;;;;;8.68;2.30;;;;;;;23.03;43.73;99002.38;5023291;28;20517;-63
2024/01/05 17:56:50;;;;;;;16.20;2.55;;;;;;;23.06;43.66;99002.47;5023317;28;20046;-64
2024/01/05 17:59:19;;;;;;;16.80;1.92;;;;;;;23.15;43.96;99003.06;5023062;28;20646;-62
2024/01/05 18:01:46;;;;;;;14.75;1.90;;;;;;;23.12;44.92;99003.72;5023473;28;20507;-64
2024/01/05 18:04:13;;;;;;;17.00;1.80;;;;;;;23.08;45.42;99008.19;5023258;28;20033;-60
2024/01/05 18:06:39;;;;;;;17.02;2.40;;;;;;;23.09;44.90;99015.06;5024135;28;20030;-62
2024/01/05 18:09:05;;;;;;;8.20;2.10;;;;;;;23.06;43.87;99015.75;5023896;28;20036;-60
2024/01/05 18:11:31;;;;;;;14.27;4.03;;;;;;;23.03;44.04;99016.44;5021653;28;20026;-64
2024/01/05 18:13:58;;;;;;;7.43;1.83;;;;;;;23.02;44.13;99014.13;5024266;28;20056;-60
2024/01/05 18:16:25;;;;;;;9.63;2.20;;;;;;;23.00;44.10;99008.41;5023519;28;20037;-65
2024/01/05 18:18:51;;;;;;;13.82;2.05;;;;;;;22.99;44.05;99012.94;5024686;28;20033;-65
2024/01/05 18:21:20;;;;;;;9.77;1.92;;;;;;;23.07;44.83;99011.19;5022093;28;20475;-62
2024/01/05 18:23:46;;;;;;;8.90;2.30;;;;;;;23.23;44.69;99007.44;5024181;28;20501;-59
2024/01/05 18:26:27;;;;;;;29.25;3.13;;;;;;;23.24;45.19;99008.97;5022632;28;20051;-57
2024/01/05 18:28:52;;;;;;;10.07;2.03;;;;;;;23.21;44.80;99007.00;5022066;28;20032;-60
2024/01/05 18:31:28;;;;;;;12.95;1.88;;;;;;;23.19;45.07;99006.59;5020983;28;20043;-58
2024/01/05 18:33:54;;;;;;;9.77;1.77;;;;;;;23.17;44.69;99003.47;5023089;28;20029;-59
2024/01/05 18:36:20;;;;;;;10.00;1.85;;;;;;;23.14;44.25;99004.19;5024321;28;20029;-58
2024/01/05 18:38:45;;;;;;;13.95;2.67;;;;;;;23.23;44.88;99007.44;5023819;28;20090;-60
2024/01/05 18:41:24;;;;;;;23.35;2.50;;;;;;;23.19;45.93;99024.41;5020210;28;20068;-60
2024/01/05 18:43:50;;;;;;;18.20;2.30;;;;;;;23.29;45.66;99005.28;5022535;28;20887;-60
2024/01/05 18:46:16;;;;;;;20.30;2.03;;;;;;;23.33;45.69;99006.91;5023563;28;20037;-60
2024/01/05 18:48:42;;;;;;;21.00;2.00;;;;;;;23.34;45.63;99007.69;5022213;28;20456;-60
2024/01/05 18:51:08;;;;;;;14.13;2.15;;;;;;;23.37;45.85;99018.41;5020355;28;20056;-58
2024/01/05 18:53:33;;;;;;;12.85;2.38;;;;;;;23.37;45.08;99013.06;5023078;28;20029;-61
2024/01/05 18:56:00;;;;;;;19.42;2.20;;;;;;;23.40;45.51;99019.59;5022398;28;20092;-61
2024/01/05 18:58:25;;;;;;;13.75;2.30;;;;;;;23.45;45.08;99025.41;5023587;28;20116;-62
2024/01/05 19:00:51;;;;;;;16.17;2.50;;;;;;;23.44;44.98;99007.91;5021398;28;20029;-60
2024/01/05 19:03:17;;;;;;;23.80;2.63;;;;;;;23.48;45.50;99021.28;5021704;28;20044;-59
2024/01/05 19:05:43;;;;;;;24.73;2.53;;;;;;;23.47;45.19;99025.81;5024569;28;20021;-60
2024/01/05 19:08:11;;;;;;;10.90;1.98;;;;;;;23.47;45.03;99025.81;5022741;28;20320;-59
2024/01/05 19:10:37;;;;;;;18.17;2.60;;;;;;;23.48;45.05;99030.06;5021353;28;20468;-60
2024/01/05 19:13:03;;;;;;;17.70;1.80;;;;;;;23.53;45.54;99032.44;5021261;28;20034;-59
2024/01/05 19:15:28;;;;;;;16.92;2.22;;;;;;;23.51;45.04;99034.66;5022303;28;20022;-58
2024/01/05 19:17:54;;;;;;;14.95;2.08;;;;;;;23.51;45.45;99039.22;5022522;28;20682;-59
2024/01/05 19:20:19;;;;;;;20.42;2.72;;;;;;;23.57;45.60;99029.84;5021910;28;20029;-58
2024/01/05 19:22:44;;;;;;;25.35;3.97;;;;;;;23.59;44.21;99033.69;5021344;28;20041;-55
2024/01/05 19:25:09;;;;;;;11.93;2.15;;;;;;;23.57;45.12;99024.53;5021223;28;20032;-60
2024/01/05 19:27:35;;;;;;;15.00;2.70;;;;;;;23.55;44.76;99024.88;5021474;28;20429;-59
2024/01/05 19:30:00;;;;;;;14.43;2.45;;;;;;;23.55;44.84;99022.19;5021036;28;20112;-58
2024/01/05 19:32:27;;;;;;;15.38;2.28;;;;;;;23.56;44.55;99036.28;5021898;28;20410;-59
2024/01/05 19:34:57;;;;;;;13.85;2.58;;;;;;;23.58;45.11;99031.38;5022706;28;20037;-60
2024/01/05 19:37:26;;;;;;;13.55;2.88;;;;;;;23.59;45.34;99036.34;5020940;28;20045;-60
2024/01/05 19:39:52;;;;;;;20.83;2.50;;;;;;;23.60;45.47;99035.22;5022334;28;20666;-61
2024/01/05 19:42:18;;;;;;;14.02;3.38;;;;;;;23.59;44.72;99025.72;5019682;28;20056;-61
2024/01/05 19:44:44;;;;;;;15.52;3.63;;;;;;;23.61;44.90;99041.34;5022004;28;20148;-61
2024/01/05 19:47:10;;;;;;;20.55;2.80;;;;;;;23.61;45.29;99044.00;5020103;28;21224;-61
2024/01/05 19:49:36;;;;;;;16.27;2.90;;;;;;;23.61;45.58;99046.66;5022049;28;20112;-61
2024/01/05 19:52:01;;;;;;;13.38;2.22;;;;;;;23.63;45.16;99045.19;5021980;28;20029;-60
2024/01/05 19:54:27;;;;;;;11.30;2.35;;;;;;;23.64;45.19;99044.06;5022011;28;20021;-61
2024/01/05 19:56:54;;;;;;;13.77;2.95;;;;;;;23.65;45.13;99055.50;5022059;28;20621;-61
2024/01/05 19:59:19;;;;;;;13.95;2.10;;;;;;;23.64;45.33;99048.63;5021480;28;20140;-61
2024/01/05 20:01:45;;;;;;;9.80;2.40;;;;;;;23.62;45.65;99061.50;5020985;28;20035;-62
2024/01/05 20:04:14;;;;;;;7.82;2.20;;;;;;;23.61;45.45;99062.63;5021262;28;20094;-62
2024/01/05 20:06:40;;;;;;;14.05;2.53;;;;;;;23.59;46.02;99057.66;5021517;28;20091;-61
2024/01/05 20:09:05;;;;;;;20.00;2.17;;;;;;;23.60;45.29;99048.53;5021012;28;20025;-61
2024/01/05 20:11:31;;;;;;;6.80;1.80;;;;;;;23.62;45.05;99054.31;5021405;28;20021;-62
2024/01/05 20:13:56;;;;;;;20.48;3.35;;;;;;;23.62;45.58;99053.53;5023227;28;20234;-57
2024/01/05 20:16:21;;;;;;;15.50;2.40;;;;;;;23.64;45.41;99059.28;5020609;28;20116;-59
2024/01/05 20:18:48;;;;;;;11.95;2.30;;;;;;;23.64;45.34;99065.34;5020269;28;20119;-58
2024/01/05 20:21:14;;;;;;;18.02;2.33;;;;;;;23.66;45.02;99057.81;5020149;28;20033;-62
2024/01/05 20:23:39;;;;;;;13.88;2.15;;;;;;;23.67;45.38;99059.34;5019062;28;20464;-59
2024/01/05 20:26:05;;;;;;;16.73;2.75;;;;;;;23.70;45.25;99066.66;5020345;28;20021;-61
2024/01/05 20:28:30;;;;;;;17.55;2.35;;;;;;;23.71;45.09;99070.06;5021922;28;20021;-63
2024/01/05 20:30:55;;;;;;;14.40;2.63;;;;;;;23.71;45.38;99062.84;5021338;28;20591;-62
2024/01/05 20:33:23;;;;;;;17.77;2.92;;;;;;;23.74;44.80;99069.38;5022180;28;20034;-62
2024/01/05 20:35:49;;;;;;;8.18;2.42;;;;;;;23.73;44.49;99073.16;5024952;28;20060;-62
2024/01/05 20:38:14;;;;;;;11.20;2.28;;;;;;;23.73;44.67;99070.50;5022022;28;20085;-62
2024/01/05 20:40:40;;;;;;;10.40;2.28;;;;;;;23.72;45.30;99072.38;5021126;28;20090;-58
2024/01/05 20:43:05;;;;;;;13.02;1.85;;;;;;;23.72;45.09;99074.28;5019453;28;20040;-57
2024/01/05 20:45:31;;;;;;;14.30;2.50;;;;;;;23.70;44.61;99071.97;5020747;28;20017;-58
2024/01/05 20:47:56;;;;;;;11.30;2.10;;;;;;;23.67;44.06;99075.31;5018747;28;20052;-58
2024/01/05 20:50:22;;;;;;;7.05;2.10;;;;;;;23.65;43.83;99077.56;5021786;28;20033;-60
2024/01/05 20:52:47;;;;;;;17.58;2.50;;;;;;;23.63;44.83;99069.16;5019185;28;20527;-58
2024/01/05 20:55:13;;;;;;;11.93;2.63;;;;;;;23.61;45.01;99067.94;5020566;28;20143;-60
2024/01/05 20:57:38;;;;;;;24.23;2.83;;;;;;;23.60;44.57;99061.84;5019536;28;20034;-58
2024/01/05 21:00:05;;;;;;;17.20;1.90;;;;;;;23.57;43.94;99065.22;5020850;28;20030;-57
2024/01/05 21:02:30;;;;;;;9.32;1.90;;;;;;;23.54;43.92;99068.56;5020899;28;20029;-59
2024/01/05 21:04:55;;;;;;;11.57;2.60;;;;;;;23.52;44.19;99062.81;5021279;28;20432;-58
2024/01/05 21:07:21;;;;;;;8.05;2.38;;;;;;;23.51;44.22;99071.16;5025253;28;20777;-58
2024/01/05 21:09:47;;;;;;;13.23;2.03;;;;;;;23.48;44.02;99072.63;5026280;28;20562;-58
2024/01/05 21:12:12;;;;;;;13.13;3.60;;;;;;;23.49;44.20;99068.06;5023858;28;20458;-58
2024/01/05 21:14:39;;;;;;;9.55;2.00;;;;;;;23.46;44.12;99082.03;5024706;28;20082;-58
2024/01/05 21:17:04;;;;;;;14.52;2.95;;;;;;;23.44;44.37;99074.44;5024812;28;20029;-57
2024/01/05 21:19:31;;;;;;;7.72;2.00;;;;;;;23.42;43.91;99067.91;5024280;28;20075;-58
2024/01/05 21:21:56;;;;;;;6.15;1.70;;;;;;;23.40;44.10;99070.91;5022851;28;20132;-58
2024/01/05 21:24:21;;;;;;;5.20;1.67;;;;;;;23.38;44.45;99073.13;5024453;28;20045;-59
2024/01/05 21:26:47;;;;;;;10.55;2.03;;;;;;;23.38;44.17;99077.72;5023842;28;20497;-60
2024/01/05 21:29:14;;;;;;;8.80;1.98;;;;;;;23.37;44.29;99068.94;5024111;28;20116;-60
2024/01/05 21:31:47;;;;;;;9.25;2.03;;;;;;;23.35;44.40;99073.81;5023069;28;20049;-59
2024/01/05 21:34:14;;;;;;;10.23;2.10;;;;;;;23.41;43.98;99069.78;5021912;28;20038;-59
2024/01/05 21:36:40;;;;;;;7.82;1.88;;;;;;;23.43;44.47;99066.78;5022472;28;20029;-59
2024/01/05 21:39:06;;;;;;;12.48;2.15;;;;;;;23.44;45.03;99065.66;5023345;28;20068;-61
2024/01/05 21:41:31;;;;;;;7.55;1.70;;;;;;;23.44;44.65;99066.44;5020443;28;20033;-60
2024/01/05 21:43:57;;;;;;;6.47;1.85;;;;;;;23.44;44.73;99074.44;5026011;28;20029;-60
2024/01/05 21:46:23;;;;;;;14.05;2.05;;;;;;;23.45;45.07;99075.19;5023787;28;20041;-61
2024/01/05 21:48:48;;;;;;;9.68;2.05;;;;;;;23.46;44.43;99076.72;5023787;28;20489;-56
2024/01/05 21:51:14;;;;;;;9.98;1.88;;;;;;;23.43;44.71;99078.19;5024215;28;20845;-59
2024/01/05 21:53:39;;;;;;;4.65;1.73;;;;;;;23.44;43.46;99074.44;5022765;28;20112;-61
2024/01/05 21:56:05;;;;;;;9.02;2.83;;;;;;;23.41;43.58;99072.47;5023324;28;20080;-60
2024/01/05 21:58:31;;;;;;;8.55;1.63;;;;;;;23.42;43.94;99078.56;5021335;28;20033;-60
2024/01/05 22:00:56;;;;;;;4.88;1.65;;;;;;;23.44;44.08;99087.75;5022908;28;20022;-59
2024/01/05 22:03:21;;;;;;;6.35;1.80;;;;;;;23.43;44.46;99082.75;5022275;28;20041;-60
2024/01/05 22:05:47;;;;;;;4.85;1.67;;;;;;;23.43;44.84;99093.41;5021817;28;20061;-60
2024/01/05 22:08:13;;;;;;;13.05;6.78;;;;;;;23.41;45.01;99087.63;5024086;28;20069;-58
2024/01/05 22:10:39;;;;;;;7.70;1.77;;;;;;;23.38;44.20;99078.47;5021042;28;20017;-58
2024/01/05 22:13:04;;;;;;;532.33;251.68;;;;;;;23.35;43.57;99084.47;5023090;28;20044;-61
2024/01/05 22:15:29;;;;;;;405.85;158.50;;;;;;;23.33;42.63;99080.59;5024206;28;20034;-60
2024/01/05 22:17:55;;;;;;;6.65;1.85;;;;;;;23.31;43.25;99083.63;5023434;28;20102;-59
2024/01/05 22:20:20;;;;;;;7.28;1.98;;;;;;;23.29;42.80;99075.22;5023189;28;20041;-60
2024/01/05 22:22:46;;;;;;;6.47;1.60;;;;;;;23.30;42.89;99091.97;5022308;28;20038;-60
2024/01/05 22:25:11;;;;;;;6.60;1.65;;;;;;;23.26;43.11;99081.22;5023908;28;20516;-57
2024/01/05 22:27:37;;;;;;;6.45;1.70;;;;;;;23.27;43.40;99087.31;5021800;28;20115;-58
2024/01/05 22:30:02;;;;;;;7.65;1.88;;;;;;;23.26;43.51;99091.84;5024030;28;20028;-58
2024/01/05 22:32:28;;;;;;;5.13;1.73;;;;;;;23.28;43.18;99099.50;5022115;28;20029;-58
2024/01/05 22:34:53;;;;;;;7.57;1.92;;;;;;;23.24;43.23;99094.09;5024264;28;20112;-55
2024/01/05 22:37:20;;;;;;;10.98;1.73;;;;;;;23.24;43.13;99093.31;5024550;28;20022;-56
2024/01/05 22:39:45;;;;;;;429.88;210.38;;;;;;;23.23;42.87;99092.56;5022517;28;20048;-57
2024/01/05 22:42:11;;;;;;;8.80;1.95;;;;;;;23.28;43.69;99091.50;5020308;28;20033;-57
2024/01/05 22:44:41;;;;;;;8.55;1.50;;;;;;;23.30;43.86;99103.34;5024546;28;20017;-57
2024/01/05 22:47:07;;;;;;;6.72;1.70;;;;;;;23.32;43.98;99095.81;5021658;28;20030;-60
2024/01/05 22:49:32;;;;;;;5.88;2.00;;;;;;;23.34;43.93;99093.56;5023157;28;20036;-61
2024/01/05 22:51:58;;;;;;;5.05;2.10;;;;;;;23.36;44.26;99098.53;5022094;28;20409;-61
2024/01/05 22:54:23;;;;;;;4.38;1.77;;;;;;;23.35;44.20;99092.44;5022656;28;20386;-61
2024/01/05 22:56:49;;;;;;;5.28;1.70;;;;;;;23.37;44.01;99095.53;5021746;28;20040;-61
2024/01/05 22:59:14;;;;;;;6.38;1.80;;;;;;;23.35;43.23;99095.09;5023657;28;20033;-59
2024/01/05 23:01:40;;;;;;;4.65;1.48;;;;;;;23.36;44.19;99096.66;5020510;28;20713;-62
2024/01/05 23:04:05;;;;;;;280.20;119.03;;;;;;;23.42;44.38;99103.25;5022194;28;20071;-62
2024/01/05 23:06:31;;;;;;;6.38;1.65;;;;;;;23.42;44.24;99099.84;5022007;28;21441;-62
2024/01/05 23:08:56;;;;;;;215.15;79.15;;;;;;;23.40;43.70;99089.53;5024207;28;20039;-62
2024/01/05 23:11:22;;;;;;;276.05;98.78;;;;;;;23.35;42.57;99089.03;5023842;28;20049;-60
2024/01/05 23:13:47;;;;;;;814.67;401.85;;;;;;;23.32;42.51;99093.16;5028362;28;20029;-61
2024/01/05 23:16:13;;;;;;;837.33;399.10;;;;;;;23.30;42.38;99097.28;5029983;28;20033;-60
2024/01/05 23:18:38;;;;;;;864.65;429.85;;;;;;;23.29;43.24;99096.50;5026184;28;20052;-60
2024/01/05 23:21:04;;;;;;;941.20;520.30;;;;;;;23.30;43.27;99097.28;5027609;28;20029;-62
2024/01/05 23:23:29;;;;;;;8.82;1.42;;;;;;;23.30;42.71;99103.34;5027946;28;20033;-62
2024/01/05 23:25:55;;;;;;;7.60;1.85;;;;;;;23.30;43.26;99102.59;5039727;28;20520;-60
2024/01/05 23:28:20;;;;;;;7.18;1.80;;;;;;;23.31;43.16;99098.81;5031561;28;20397;-58
2024/01/05 23:30:46;;;;;;;7.25;1.83;;;;;;;23.30;43.08;99098.03;5034004;28;20393;-60
2024/01/05 23:33:12;;;;;;;4.60;1.60;;;;;;;23.30;42.78;99098.03;5018765;28;20085;-61
2024/01/05 23:35:37;;;;;;;7.35;2.08;;;;;;;23.29;42.44;99101.81;5033426;28;20018;-59
2024/01/05 23:38:03;;;;;;;8.68;2.00;;;;;;;23.31;42.88;99104.13;5024151;28;20022;-62
2024/01/05 23:40:28;;;;;;;8.60;2.00;;;;;;;23.31;42.50;99106.78;5027617;28;20474;-59
2024/01/05 23:42:53;;;;;;;7.75;1.83;;;;;;;23.34;42.79;99111.44;5026925;28;20041;-59
2024/01/05 23:45:19;;;;;;;70.18;29.67;;;;;;;23.31;43.11;99104.91;5026291;28;20030;-65
2024/01/05 23:47:45;;;;;;;6.30;1.75;;;;;;;23.27;42.79;99114.69;5025271;28;20025;-64
2024/01/05 23:50:11;;;;;;;6.82;1.70;;;;;;;23.28;43.21;99116.22;5032294;28;20021;-65
2024/01/05 23:52:36;;;;;;;8.18;2.00;;;;;;;23.32;43.15;99121.63;5024084;28;20040;-67
2024/01/05 23:55:02;;;;;;;11.00;1.77;;;;;;;23.32;42.75;99119.75;5029130;28;20025;-65
2024/01/05 23:57:27;;;;;;;9.55;2.08;;;;;;;23.32;43.55;99113.66;5021351;28;20116;-65
2024/01/05 23:59:52;;;;;;;6.03;1.73;;;;;;;23.30;43.55;99115.91;5028765;28;20029;-63
